createdAt,value
2022-08-25T00:00:49.290Z,9.65
2022-08-25T00:06:14.798Z,10.95
2022-08-25T00:11:39.822Z,10.43
2022-08-25T00:17:03.173Z,10.93
2022-08-25T00:22:27.690Z,10.70
2022-08-25T00:27:51.031Z,12.23
2022-08-25T00:33:14.691Z,11.07
2022-08-25T00:38:39.475Z,12.52
2022-08-25T00:44:06.279Z,10.70
2022-08-25T00:49:39.110Z,11.48
2022-08-25T00:55:06.437Z,12.05
2022-08-25T01:00:34.210Z,11.95
2022-08-25T01:05:58.287Z,11.27
2022-08-25T01:11:23.449Z,12.88
2022-08-25T01:16:46.682Z,12.70
2022-08-25T01:22:16.661Z,13.52
2022-08-25T01:27:39.795Z,12.70
2022-08-25T01:33:04.780Z,13.07
2022-08-25T01:38:29.250Z,13.73
2022-08-25T01:43:52.398Z,13.13
2022-08-25T01:49:15.896Z,13.90
2022-08-25T01:54:40.416Z,15.18
2022-08-25T02:00:06.193Z,15.07
2022-08-25T02:05:34.116Z,15.60
2022-08-25T02:10:58.643Z,14.35
2022-08-25T02:16:25.053Z,15.25
2022-08-25T02:21:48.370Z,14.88
2022-08-25T02:27:12.849Z,14.57
2022-08-25T02:32:35.947Z,13.82
2022-08-25T02:37:59.249Z,12.55
2022-08-25T02:43:24.868Z,13.85
2022-08-25T02:48:48.400Z,13.27
2022-08-25T02:54:11.436Z,11.40
2022-08-25T02:59:36.075Z,11.35
2022-08-25T03:04:59.211Z,11.85
2022-08-25T03:10:22.262Z,11.57
2022-08-25T03:15:46.670Z,11.38
2022-08-25T03:21:13.368Z,10.90
2022-08-25T03:26:56.916Z,10.95
2022-08-25T03:32:21.439Z,11.60
2022-08-25T03:37:44.724Z,9.77
2022-08-25T03:43:07.812Z,10.38
2022-08-25T03:48:32.484Z,10.70
2022-08-25T03:53:56.294Z,8.90
2022-08-25T03:59:19.557Z,9.30
2022-08-25T04:04:43.986Z,8.48
2022-08-25T04:10:08.509Z,8.25
2022-08-25T04:15:31.600Z,9.68
2022-08-25T04:21:03.008Z,9.43
2022-08-25T04:26:33.714Z,8.25
2022-08-25T04:31:57.285Z,7.63
2022-08-25T04:37:21.725Z,7.32
2022-08-25T04:42:45.753Z,7.07
2022-08-25T04:48:11.335Z,7.70
2022-08-25T04:53:36.796Z,6.97
2022-08-25T04:59:03.307Z,6.68
2022-08-25T05:04:28.544Z,6.32
2022-08-25T05:09:53.470Z,7.10
2022-08-25T05:15:34.294Z,6.72
2022-08-25T05:20:57.973Z,5.90
2022-08-25T05:26:22.715Z,5.97
2022-08-25T05:31:50.151Z,6.38
2022-08-25T05:37:13.761Z,5.50
2022-08-25T05:42:38.197Z,5.35
2022-08-25T05:48:01.594Z,4.65
2022-08-25T05:53:25.439Z,5.82
2022-08-25T05:58:50.175Z,5.43
2022-08-25T06:04:13.628Z,5.57
2022-08-25T06:09:38.785Z,5.47
2022-08-25T06:15:03.523Z,4.90
2022-08-25T06:20:28.267Z,5.00
2022-08-25T06:25:52.163Z,5.22
2022-08-25T06:31:17.210Z,5.65
2022-08-25T06:36:40.612Z,5.43
2022-08-25T06:42:03.774Z,5.93
2022-08-25T06:47:28.674Z,4.90
2022-08-25T06:52:52.186Z,5.13
2022-08-25T06:58:15.502Z,5.38
2022-08-25T07:03:40.384Z,3.85
2022-08-25T07:09:04.754Z,3.08
2022-08-25T07:14:28.116Z,3.03
2022-08-25T07:19:53.036Z,3.20
2022-08-25T07:25:21.284Z,2.80
2022-08-25T07:30:45.510Z,2.65
2022-08-25T07:36:16.951Z,3.08
2022-08-25T07:41:41.873Z,2.42
2022-08-25T07:47:05.594Z,2.03
2022-08-25T07:52:30.721Z,2.55
2022-08-25T07:57:56.069Z,2.05
2022-08-25T08:03:35.483Z,2.47
2022-08-25T08:09:05.782Z,2.72
2022-08-25T08:14:28.929Z,2.45
2022-08-25T08:19:52.195Z,2.60
2022-08-25T08:25:18.868Z,2.50
2022-08-25T08:30:53.328Z,2.30
2022-08-25T08:36:17.262Z,2.97
2022-08-25T08:42:19.278Z,2.65
2022-08-25T08:47:52.789Z,2.55
2022-08-25T08:53:19.314Z,2.10
2022-08-25T08:58:49.872Z,3.10
2022-08-25T09:04:16.983Z,2.88
2022-08-25T09:09:44.449Z,2.40
2022-08-25T09:15:19.877Z,2.78
2022-08-25T09:20:51.538Z,2.67
2022-08-25T09:26:29.249Z,2.53
2022-08-25T09:31:59.500Z,3.40
2022-08-25T09:37:24.533Z,2.40
2022-08-25T09:42:49.620Z,2.78
2022-08-25T09:48:25.990Z,3.15
2022-08-25T09:53:53.610Z,2.60
2022-08-25T09:59:34.213Z,2.67
2022-08-25T10:04:59.890Z,2.60
2022-08-25T10:10:28.595Z,3.53
2022-08-25T10:16:05.435Z,2.88
2022-08-25T10:21:45.159Z,3.33
2022-08-25T10:27:15.219Z,3.67
2022-08-25T10:33:08.156Z,2.65
2022-08-25T10:38:38.761Z,3.25
2022-08-25T10:44:30.043Z,3.22
2022-08-25T10:49:56.606Z,3.05
2022-08-25T10:55:27.948Z,3.60
2022-08-25T11:00:57.054Z,2.60
2022-08-25T11:06:22.739Z,2.47
2022-08-25T11:11:51.401Z,3.22
2022-08-25T11:17:18.232Z,2.72
2022-08-25T11:22:45.416Z,2.80
2022-08-25T11:28:13.524Z,2.55
2022-08-25T11:33:36.674Z,2.30
2022-08-25T11:39:15.418Z,3.63
2022-08-25T11:44:53.445Z,2.83
2022-08-25T11:50:30.499Z,2.42
2022-08-25T11:55:56.052Z,3.08
2022-08-25T12:02:11.293Z,3.00
2022-08-25T12:08:22.399Z,3.10
2022-08-25T12:13:47.411Z,3.10
2022-08-25T12:19:32.029Z,2.50
2022-08-25T12:24:59.504Z,2.70
2022-08-25T12:30:26.169Z,2.88
2022-08-25T12:35:56.871Z,2.95
2022-08-25T12:41:24.212Z,2.75
2022-08-25T12:46:48.337Z,2.50
2022-08-25T12:52:14.213Z,2.60
2022-08-25T12:57:44.694Z,2.75
2022-08-25T13:03:27.034Z,2.55
2022-08-25T13:09:19.400Z,2.88
2022-08-25T13:14:46.356Z,2.60
2022-08-25T13:20:14.885Z,2.75
2022-08-25T13:25:43.097Z,3.10
2022-08-25T13:31:10.685Z,2.00
2022-08-25T13:36:58.775Z,2.92
2022-08-25T13:42:23.972Z,2.88
2022-08-25T13:47:55.722Z,3.28
2022-08-25T13:53:23.952Z,4.10
2022-08-25T13:58:47.357Z,4.95
2022-08-25T14:04:29.261Z,4.07
2022-08-25T14:09:56.086Z,4.13
2022-08-25T14:15:33.428Z,5.00
2022-08-25T14:20:59.265Z,3.85
2022-08-25T14:26:22.458Z,4.40
2022-08-25T14:31:46.933Z,5.43
2022-08-25T14:37:15.621Z,5.97
2022-08-25T14:42:38.874Z,4.90
2022-08-25T14:48:05.066Z,4.72
2022-08-25T14:53:35.175Z,5.50
2022-08-25T14:58:59.598Z,4.70
2022-08-25T15:04:27.464Z,4.60
2022-08-25T15:09:51.946Z,5.18
2022-08-25T15:15:15.322Z,4.18
2022-08-25T15:20:38.466Z,4.65
2022-08-25T15:26:02.961Z,5.80
2022-08-25T15:31:28.517Z,6.93
2022-08-25T15:36:51.610Z,6.80
2022-08-25T15:42:16.338Z,7.13
2022-08-25T15:47:39.540Z,10.95
2022-08-25T15:53:03.792Z,12.23
2022-08-25T15:58:33.266Z,12.73
2022-08-25T16:03:57.164Z,12.48
2022-08-25T16:09:22.938Z,16.48
2022-08-25T16:14:47.969Z,16.15
2022-08-25T16:20:13.907Z,17.52
2022-08-25T16:25:40.602Z,18.33
2022-08-25T16:31:07.300Z,18.40
2022-08-25T16:36:31.841Z,19.52
2022-08-25T16:41:55.102Z,20.08
2022-08-25T16:47:20.518Z,19.58
2022-08-25T16:53:08.049Z,19.48
2022-08-25T16:58:31.569Z,19.42
2022-08-25T17:03:58.836Z,16.67
2022-08-25T17:09:23.858Z,17.35
2022-08-25T17:14:48.001Z,17.38
2022-08-25T17:20:13.681Z,16.95
2022-08-25T17:25:41.401Z,15.23
2022-08-25T17:31:06.393Z,16.80
2022-08-25T17:36:31.337Z,15.25
2022-08-25T17:41:54.969Z,16.27
2022-08-25T17:47:18.389Z,16.45
2022-08-25T17:52:42.961Z,17.77
2022-08-25T17:58:07.421Z,19.60
2022-08-25T18:03:30.989Z,17.02
2022-08-25T18:08:59.967Z,17.45
2022-08-25T18:14:25.611Z,19.48
2022-08-25T18:19:49.474Z,18.13
2022-08-25T18:25:15.471Z,19.05
2022-08-25T18:30:40.455Z,18.40
2022-08-25T18:36:03.962Z,17.10
2022-08-25T18:41:31.411Z,16.58
2022-08-25T18:46:54.510Z,12.38
2022-08-25T18:52:17.972Z,12.35
2022-08-25T18:57:42.905Z,12.18
2022-08-25T19:03:06.146Z,10.70
2022-08-25T19:08:29.487Z,9.27
2022-08-25T19:13:54.031Z,9.00
2022-08-25T19:19:17.174Z,10.35
2022-08-25T19:24:40.217Z,10.02
2022-08-25T19:30:09.831Z,10.32
2022-08-25T19:35:37.462Z,9.68
2022-08-25T19:41:00.891Z,9.82
2022-08-25T19:46:31.998Z,9.27
2022-08-25T19:51:57.499Z,9.88
2022-08-25T19:57:28.320Z,10.68
2022-08-25T20:03:07.380Z,9.27
2022-08-25T20:08:30.616Z,7.72
2022-08-25T20:13:53.876Z,6.85
2022-08-25T20:19:18.337Z,6.82
2022-08-25T20:24:51.124Z,5.00
2022-08-25T20:30:22.100Z,5.07
2022-08-25T20:35:49.723Z,5.43
2022-08-25T20:41:16.633Z,3.83
2022-08-25T20:46:41.552Z,3.80
2022-08-25T20:52:07.958Z,2.58
2022-08-25T20:57:31.619Z,3.28
2022-08-25T21:02:54.982Z,2.30
2022-08-25T21:08:19.556Z,2.30
2022-08-25T21:13:47.422Z,2.20
2022-08-25T21:19:12.305Z,3.08
2022-08-25T21:24:37.144Z,2.65
2022-08-25T21:30:00.595Z,1.98
2022-08-25T21:35:24.670Z,1.70
2022-08-25T21:40:49.549Z,1.98
2022-08-25T21:46:22.350Z,2.55
2022-08-25T21:51:46.192Z,3.45
2022-08-25T21:57:10.808Z,2.80
2022-08-25T22:02:34.147Z,1.98
2022-08-25T22:07:57.978Z,2.20
2022-08-25T22:13:23.431Z,2.67
2022-08-25T22:18:46.733Z,2.10
2022-08-25T22:24:11.699Z,2.47
2022-08-25T22:29:36.412Z,2.03
2022-08-25T22:34:59.689Z,1.80
2022-08-25T22:40:22.983Z,1.98
2022-08-25T22:45:48.160Z,2.47
2022-08-25T22:51:16.221Z,1.90
2022-08-25T22:56:39.745Z,1.98
2022-08-25T23:02:05.954Z,1.83
2022-08-25T23:07:30.996Z,1.92
2022-08-25T23:12:54.207Z,2.05
2022-08-25T23:18:19.203Z,2.25
2022-08-25T23:23:43.386Z,1.63
2022-08-25T23:29:18.082Z,2.55
2022-08-25T23:34:46.337Z,1.80
2022-08-25T23:40:11.980Z,1.40
2022-08-25T23:45:42.360Z,2.20
2022-08-25T23:51:07.827Z,1.40
2022-08-25T23:56:31.642Z,1.40
